Time;durP1;ratioP1;P1;durP2;ratioP2;P2;SDS_P1;SDS_P2;PMS_P1;PMS_P2;Temp;Humidity;BMP_temperature;BMP_pressure;BME280_temperature;BME280_humidity;BME280_pressure;Samples;Min_cycle;Max_cycle;Signal;HPM_P1;HPM_P2
2022/08/07 00:02:07;;;;;;;10.15;2.12;;;;;;;12.76;100.00;99672.55;2240642;79;21535;-63
2022/08/07 00:05:08;;;;;;;12.87;3.40;;;;;;;12.74;100.00;99680.16;2231770;79;21022;-66
2022/08/07 00:08:09;;;;;;;13.33;4.23;;;;;;;12.71;100.00;99671.95;2235123;80;20961;-63
2022/08/07 00:11:11;;;;;;;15.00;3.70;;;;;;;12.77;100.00;99670.77;2227864;79;20980;-62
2022/08/07 00:14:12;;;;;;;15.07;4.17;;;;;;;12.80;100.00;99672.77;2236243;79;20992;-66
2022/08/07 00:17:14;;;;;;;15.68;4.67;;;;;;;12.85;100.00;99671.18;2232738;79;21344;-64
2022/08/07 00:20:15;;;;;;;15.80;4.37;;;;;;;12.96;100.00;99670.11;2231556;79;20987;-62
2022/08/07 00:23:17;;;;;;;12.13;3.50;;;;;;;12.93;100.00;99680.81;2218269;79;21040;-60
2022/08/07 00:26:18;;;;;;;11.00;3.83;;;;;;;12.56;100.00;99686.83;2229550;79;20981;-64
2022/08/07 00:29:24;;;;;;;10.25;3.33;;;;;;;12.56;100.00;99688.14;2235100;79;21017;-62
2022/08/07 00:32:23;;;;;;;14.60;3.60;;;;;;;12.58;100.00;99687.58;2196200;79;21008;-69
2022/08/07 00:35:25;;;;;;;11.12;3.20;;;;;;;12.59;100.00;99688.45;2229475;79;21033;-70
2022/08/07 00:38:26;;;;;;;11.40;3.30;;;;;;;12.69;100.00;99692.27;2227334;79;21494;-68
2022/08/07 00:41:28;;;;;;;14.55;3.62;;;;;;;12.74;100.00;99693.31;2227548;79;21025;-64
2022/08/07 00:44:29;;;;;;;14.70;3.73;;;;;;;12.73;100.00;99688.53;2226872;79;21493;-68
2022/08/07 00:47:31;;;;;;;14.03;3.87;;;;;;;12.80;100.00;99683.30;2240625;79;21031;-62
2022/08/07 00:50:32;;;;;;;16.80;4.27;;;;;;;12.93;100.00;99686.53;2232388;80;21500;-59
2022/08/07 00:53:34;;;;;;;15.78;3.98;;;;;;;12.88;100.00;99678.06;2229872;79;21081;-71
2022/08/07 00:56:35;;;;;;;14.07;4.00;;;;;;;12.83;100.00;99680.48;2224501;79;21068;-67
2022/08/07 00:59:37;;;;;;;16.20;4.45;;;;;;;12.79;100.00;99683.39;2240342;79;21134;-72
2022/08/07 01:02:39;;;;;;;17.00;4.00;;;;;;;12.76;100.00;99680.45;2238163;79;20992;-69
2022/08/07 01:05:40;;;;;;;23.67;4.03;;;;;;;12.72;100.00;99686.82;2232487;79;20988;-71
2022/08/07 01:08:42;;;;;;;17.47;4.70;;;;;;;12.68;100.00;99682.66;2233873;79;20989;-68
2022/08/07 01:11:43;;;;;;;17.73;4.72;;;;;;;12.64;100.00;99684.62;2244020;79;21077;-70
2022/08/07 01:14:45;;;;;;;19.67;5.17;;;;;;;12.64;100.00;99684.62;2224758;79;21061;-64
2022/08/07 01:17:46;;;;;;;15.27;4.33;;;;;;;12.69;100.00;99681.73;2244054;78;21057;-61
2022/08/07 01:20:47;;;;;;;17.20;4.37;;;;;;;12.74;100.00;99683.66;2243582;79;21080;-60
2022/08/07 01:23:49;;;;;;;17.73;4.50;;;;;;;12.53;100.00;99679.56;2247679;79;21532;-59
2022/08/07 01:26:50;;;;;;;20.33;3.63;;;;;;;12.34;100.00;99681.92;2241330;79;21069;-60
2022/08/07 01:29:52;;;;;;;10.70;2.73;;;;;;;12.20;100.00;99694.49;2243863;79;21054;-59
2022/08/07 01:32:53;;;;;;;8.78;2.33;;;;;;;11.97;100.00;99703.61;2239422;79;21010;-60
2022/08/07 01:35:55;;;;;;;12.77;2.90;;;;;;;11.85;100.00;99696.33;2238522;79;21064;-59
2022/08/07 01:38:56;;;;;;;11.05;2.72;;;;;;;11.83;100.00;99689.84;2245707;79;21115;-66
2022/08/07 01:41:58;;;;;;;7.30;2.17;;;;;;;11.66;100.00;99686.77;2237130;78;21064;-61
2022/08/07 01:45:00;;;;;;;7.28;2.30;;;;;;;11.66;100.00;99686.77;2230779;79;21562;-60
2022/08/07 01:48:02;;;;;;;9.20;2.63;;;;;;;11.55;100.00;99680.77;2240988;79;21086;-66
2022/08/07 01:51:04;;;;;;;11.12;3.27;;;;;;;11.54;100.00;99685.62;2241375;79;21673;-65
2022/08/07 01:54:05;;;;;;;14.45;3.95;;;;;;;11.60;100.00;99685.78;2243747;78;21057;-66
2022/08/07 01:57:06;;;;;;;16.63;3.93;;;;;;;11.71;100.00;99683.45;2246951;79;21521;-59
2022/08/07 02:00:08;;;;;;;9.20;2.80;;;;;;;11.82;100.00;99681.56;2236331;78;21001;-62
2022/08/07 02:03:09;;;;;;;9.63;2.93;;;;;;;11.82;100.00;99678.09;2237532;79;21070;-60
2022/08/07 02:06:11;;;;;;;13.90;3.58;;;;;;;11.81;100.00;99681.20;2245216;78;21072;-69
2022/08/07 02:09:12;;;;;;;24.20;4.37;;;;;;;11.88;100.00;99685.20;2238795;79;21039;-66
2022/08/07 02:15:17;;;;;;;18.05;4.78;;;;;;;11.79;100.00;99677.34;2223109;79;21036;-66
2022/08/07 02:18:18;;;;;;;15.43;3.70;;;;;;;11.79;100.00;99681.28;2244398;78;21048;-69
2022/08/07 02:21:20;;;;;;;16.47;3.90;;;;;;;11.79;100.00;99677.78;2242778;79;21566;-62
2022/08/07 02:24:21;;;;;;;13.17;3.80;;;;;;;11.84;100.00;99678.84;2239238;78;21057;-60
2022/08/07 02:27:22;;;;;;;18.30;3.67;;;;;;;11.84;100.00;99684.97;2234061;79;21547;-66
2022/08/07 02:30:24;;;;;;;14.40;3.90;;;;;;;11.81;100.00;99690.39;2232947;79;21047;-66
2022/08/07 02:33:25;;;;;;;16.13;4.00;;;;;;;11.81;100.00;99692.16;2239526;79;21072;-64
2022/08/07 02:36:27;;;;;;;17.47;4.00;;;;;;;11.78;100.00;99687.94;2242605;79;21564;-71
2022/08/07 02:39:28;;;;;;;15.43;3.75;;;;;;;11.79;100.00;99679.09;2239766;79;20961;-70
2022/08/07 02:42:30;;;;;;;9.65;3.60;;;;;;;11.75;100.00;99678.87;2238604;79;21569;-68
2022/08/07 02:45:31;;;;;;;12.03;3.45;;;;;;;11.79;100.00;99682.59;2219837;79;20996;-65
2022/08/07 02:48:33;;;;;;;11.27;3.30;;;;;;;11.72;100.00;99689.09;2236153;79;21506;-65
2022/08/07 02:51:34;;;;;;;15.87;3.67;;;;;;;11.71;100.00;99692.64;2217855;79;21064;-70
2022/08/07 02:54:36;;;;;;;11.70;3.27;;;;;;;11.86;100.00;99685.73;2234637;79;20977;-69
2022/08/07 02:57:38;;;;;;;10.93;3.00;;;;;;;11.86;100.00;99696.72;2234387;79;21036;-69
2022/08/07 03:00:39;;;;;;;9.17;2.97;;;;;;;11.73;100.00;99694.72;2240828;79;20993;-70
2022/08/07 03:03:41;;;;;;;10.20;2.93;;;;;;;11.59;100.00;99695.45;2231372;79;21067;-71
2022/08/07 03:06:42;;;;;;;9.87;2.97;;;;;;;11.48;100.00;99699.09;2243475;79;20957;-71
2022/08/07 03:09:44;;;;;;;14.13;3.75;;;;;;;11.41;100.00;99699.02;2236365;79;21625;-71
2022/08/07 03:12:45;;;;;;;15.53;3.33;;;;;;;11.42;100.00;99700.69;2232976;79;20983;-67
2022/08/07 03:15:47;;;;;;;13.70;3.55;;;;;;;11.52;100.00;99703.27;2234509;79;21535;-69
2022/08/07 03:18:50;;;;;;;17.27;3.92;;;;;;;11.50;100.00;99705.09;2240624;79;21555;-60
2022/08/07 03:21:52;;;;;;;15.53;4.00;;;;;;;11.61;100.00;99704.56;2220342;79;21075;-59
2022/08/07 03:24:55;;;;;;;10.17;3.20;;;;;;;11.55;100.00;99700.47;2219974;79;21559;-60
2022/08/07 03:27:56;;;;;;;14.23;3.40;;;;;;;11.51;100.00;99704.18;2238405;79;21239;-58
2022/08/07 03:34:01;;;;;;;10.32;2.90;;;;;;;11.50;100.00;99705.58;2213211;79;20996;-63
2022/08/07 03:37:03;;;;;;;8.95;2.62;;;;;;;11.47;100.00;99699.17;2244319;79;21088;-62
2022/08/07 03:40:04;;;;;;;6.27;2.13;;;;;;;11.32;100.00;99702.08;2245157;79;21056;-60
2022/08/07 03:43:05;;;;;;;3.80;1.60;;;;;;;11.22;100.00;99705.19;2233481;79;21011;-59
2022/08/07 03:46:07;;;;;;;6.73;2.00;;;;;;;11.36;100.00;99704.95;2238105;79;21491;-59
2022/08/07 03:49:09;;;;;;;6.60;2.08;;;;;;;11.44;100.00;99700.16;2234967;79;21052;-59
2022/08/07 03:52:10;;;;;;;5.37;1.67;;;;;;;11.49;100.00;99704.70;2237851;79;21564;-59
2022/08/07 03:55:12;;;;;;;6.40;2.40;;;;;;;11.59;100.00;99709.91;2227598;79;20952;-60
2022/08/07 03:58:13;;;;;;;8.43;2.70;;;;;;;11.76;100.00;99711.64;2220221;79;21533;-59
2022/08/07 04:01:14;;;;;;;7.62;2.70;;;;;;;11.76;100.00;99709.48;2234122;79;20983;-60
2022/08/07 04:04:16;;;;;;;11.77;3.17;;;;;;;11.81;100.00;99710.11;2237428;78;21051;-60
2022/08/07 04:07:17;;;;;;;15.17;3.63;;;;;;;11.74;100.00;99715.30;2242420;79;21019;-58
2022/08/07 04:10:19;;;;;;;10.57;3.10;;;;;;;11.66;100.00;99724.88;2245966;79;21000;-59
2022/08/07 04:13:20;;;;;;;13.10;3.40;;;;;;;11.74;100.00;99718.77;2246749;79;21124;-59
2022/08/07 04:16:22;;;;;;;14.55;3.70;;;;;;;11.99;100.00;99724.56;2231976;79;21051;-67
2022/08/07 04:19:24;;;;;;;12.67;3.60;;;;;;;12.23;100.00;99734.25;2239068;79;21064;-62
2022/08/07 04:22:26;;;;;;;17.37;4.72;;;;;;;12.51;100.00;99735.38;2244759;79;21068;-59
2022/08/07 04:25:28;;;;;;;18.12;4.90;;;;;;;12.79;100.00;99721.56;2244472;79;21052;-68
2022/08/07 04:28:29;;;;;;;18.12;4.80;;;;;;;12.98;100.00;99733.21;2231648;79;21065;-66
2022/08/07 04:31:31;;;;;;;17.63;5.00;;;;;;;13.15;100.00;99735.73;2238645;79;20990;-69
2022/08/07 04:34:33;;;;;;;18.05;4.65;;;;;;;13.15;100.00;99730.46;2235776;79;21089;-66
2022/08/07 04:37:34;;;;;;;17.20;5.10;;;;;;;13.22;100.00;99730.12;2236276;79;21096;-70
2022/08/07 04:40:36;;;;;;;17.95;5.05;;;;;;;13.10;100.00;99736.93;2246770;79;21532;-66
2022/08/07 04:43:37;;;;;;;20.27;5.90;;;;;;;13.09;100.00;99737.41;2247050;79;21143;-59
2022/08/07 04:46:39;;;;;;;17.35;5.53;;;;;;;13.09;100.00;99745.31;2240074;79;21570;-68
2022/08/07 04:49:40;;;;;;;16.73;5.27;;;;;;;13.18;100.00;99750.04;2239051;79;21059;-69
2022/08/07 04:52:42;;;;;;;15.30;5.03;;;;;;;13.49;100.00;99750.11;2238421;79;21008;-69
2022/08/07 04:55:43;;;;;;;16.17;5.00;;;;;;;13.91;100.00;99744.54;2246945;79;21104;-62
2022/08/07 04:58:45;;;;;;;17.50;5.13;;;;;;;14.13;100.00;99751.98;2245562;79;21080;-69
2022/08/07 05:01:46;;;;;;;15.20;5.23;;;;;;;14.21;100.00;99747.09;2235531;79;20996;-66
2022/08/07 05:04:48;;;;;;;19.13;6.00;;;;;;;14.20;100.00;99751.98;2238145;79;20984;-66
2022/08/07 05:07:49;;;;;;;18.03;5.80;;;;;;;14.18;100.00;99752.56;2234457;79;21481;-67
2022/08/07 05:10:51;;;;;;;18.17;6.53;;;;;;;14.23;100.00;99755.40;2229669;79;21012;-70
2022/08/07 05:13:52;;;;;;;20.73;6.73;;;;;;;14.60;100.00;99763.20;2244736;79;21465;-66
2022/08/07 05:16:53;;;;;;;17.10;6.63;;;;;;;15.02;100.00;99757.46;2229610;79;20977;-68
2022/08/07 05:19:55;;;;;;;19.32;6.97;;;;;;;15.32;100.00;99758.22;2231798;78;21045;-64
2022/08/07 05:22:56;;;;;;;19.43;7.03;;;;;;;15.28;100.00;99764.65;2239259;79;20981;-58
2022/08/07 05:25:58;;;;;;;18.67;7.63;;;;;;;15.16;100.00;99774.23;2244623;79;21117;-59
2022/08/07 05:28:59;;;;;;;20.77;7.33;;;;;;;14.98;100.00;99765.69;2244072;79;21519;-63
2022/08/07 05:32:01;;;;;;;17.77;6.70;;;;;;;15.11;100.00;99767.91;2245375;79;21703;-59
2022/08/07 05:35:02;;;;;;;19.03;6.23;;;;;;;15.17;100.00;99766.20;2247376;79;21057;-59
2022/08/07 05:38:05;;;;;;;17.70;6.60;;;;;;;15.16;100.00;99768.47;2225575;79;21065;-59
2022/08/07 05:41:06;;;;;;;21.33;7.83;;;;;;;15.15;100.00;99768.56;2238258;79;21602;-58
2022/08/07 05:44:08;;;;;;;19.00;6.50;;;;;;;15.19;100.00;99764.78;2245532;79;21054;-61
2022/08/07 05:47:09;;;;;;;18.60;6.93;;;;;;;15.26;100.00;99770.04;2229401;79;21471;-59
2022/08/07 05:50:11;;;;;;;20.90;7.07;;;;;;;15.32;100.00;99770.11;2244114;79;21080;-59
2022/08/07 05:53:12;;;;;;;19.53;6.50;;;;;;;15.32;100.00;99771.44;2236227;79;21065;-60
2022/08/07 05:56:14;;;;;;;17.98;6.10;;;;;;;15.33;100.00;99767.37;2246731;79;21143;-61
2022/08/07 05:59:16;;;;;;;18.35;6.30;;;;;;;15.41;100.00;99769.04;2228993;79;21024;-59
2022/08/07 06:02:17;;;;;;;19.73;6.60;;;;;;;15.89;100.00;99773.80;2239504;79;21083;-60
2022/08/07 06:05:19;;;;;;;17.43;6.03;;;;;;;15.89;100.00;99773.80;2239346;79;21451;-61
2022/08/07 06:08:20;;;;;;;17.45;5.95;;;;;;;16.31;100.00;99776.73;2229259;79;20995;-63
2022/08/07 06:11:22;;;;;;;17.40;5.75;;;;;;;16.48;100.00;99780.36;2232499;79;21098;-59
2022/08/07 06:14:23;;;;;;;16.13;5.47;;;;;;;16.77;100.00;99780.92;2234993;78;21043;-59
2022/08/07 06:17:25;;;;;;;12.98;4.20;;;;;;;17.01;100.00;99781.48;2227061;79;21087;-59
2022/08/07 06:20:26;;;;;;;16.20;3.97;;;;;;;17.31;100.00;99785.02;2238964;79;20984;-60
2022/08/07 06:23:27;;;;;;;11.70;3.40;;;;;;;17.38;100.00;99781.89;2238253;79;21900;-59
2022/08/07 06:26:29;;;;;;;10.53;3.47;;;;;;;17.45;100.00;99785.29;2246500;79;21041;-60
2022/08/07 06:29:30;;;;;;;12.90;3.70;;;;;;;17.46;100.00;99777.71;2233979;79;20980;-60
2022/08/07 06:32:32;;;;;;;10.53;2.92;;;;;;;17.66;100.00;99784.17;2235341;79;21479;-59
2022/08/07 06:35:33;;;;;;;8.60;3.00;;;;;;;17.86;100.00;99781.83;2232878;79;21032;-61
2022/08/07 06:38:35;;;;;;;12.05;2.90;;;;;;;18.08;100.00;99781.54;2216244;79;21115;-62
2022/08/07 06:41:36;;;;;;;10.63;2.80;;;;;;;18.49;100.00;99783.62;2223231;79;21012;-63
2022/08/07 06:44:37;;;;;;;9.53;2.47;;;;;;;18.85;100.00;99787.46;2234061;79;21060;-59
2022/08/07 06:47:39;;;;;;;9.25;2.65;;;;;;;19.04;100.00;99788.17;2235750;79;20992;-63
2022/08/07 06:50:40;;;;;;;8.65;2.47;;;;;;;19.22;100.00;99787.14;2237140;79;21098;-60
2022/08/07 06:53:42;;;;;;;7.12;2.20;;;;;;;19.49;100.00;99789.84;2234247;79;21598;-68
2022/08/07 06:56:45;;;;;;;7.70;2.15;;;;;;;19.76;100.00;99789.34;2230846;79;20968;-61
2022/08/07 06:59:47;;;;;;;7.35;1.82;;;;;;;19.71;100.00;99789.73;2207843;79;21004;-60
2022/08/07 07:02:48;;;;;;;8.53;1.90;;;;;;;19.92;100.00;99788.92;2234613;79;21498;-60
2022/08/07 07:05:50;;;;;;;12.88;1.60;;;;;;;20.21;100.00;99792.24;2231085;79;21031;-65
2022/08/07 07:08:51;;;;;;;11.05;1.90;;;;;;;20.30;100.00;99793.27;2242245;79;21063;-68
2022/08/07 07:11:52;;;;;;;8.90;2.10;;;;;;;20.36;100.00;99798.08;2229435;79;21056;-64
2022/08/07 07:14:56;;;;;;;6.03;1.65;;;;;;;20.63;100.00;99793.50;2214508;79;20994;-63
2022/08/07 07:17:58;;;;;;;6.75;2.00;;;;;;;20.94;96.54;99789.47;2232089;79;21550;-65
2022/08/07 07:21:00;;;;;;;7.60;1.82;;;;;;;20.94;100.00;99799.62;2242888;79;21036;-68
2022/08/07 07:24:01;;;;;;;10.23;1.98;;;;;;;21.09;100.00;99787.27;2220991;79;21558;-68
2022/08/07 07:27:03;;;;;;;5.50;1.80;;;;;;;21.35;100.00;99790.70;2234529;79;21037;-59
2022/08/07 07:30:04;;;;;;;10.18;1.92;;;;;;;21.70;100.00;99784.02;2231750;79;21531;-61
2022/08/07 07:33:06;;;;;;;6.47;1.55;;;;;;;21.78;100.00;99780.98;2229433;79;21100;-60
2022/08/07 07:36:08;;;;;;;8.20;1.82;;;;;;;22.10;100.00;99774.95;2242768;79;21581;-62
2022/08/07 07:39:09;;;;;;;6.85;2.12;;;;;;;22.40;98.15;99765.88;2237634;79;20979;-60
2022/08/07 07:42:11;;;;;;;10.43;2.22;;;;;;;22.66;95.48;99772.70;2240615;79;20991;-60
2022/08/07 07:45:12;;;;;;;5.92;2.10;;;;;;;22.84;96.93;99773.23;2235626;79;21035;-61
2022/08/07 07:48:14;;;;;;;10.13;2.17;;;;;;;23.20;93.29;99768.47;2243476;79;21092;-62
2022/08/07 07:51:17;;;;;;;9.40;2.22;;;;;;;23.50;90.27;99769.91;2236012;79;21661;-60
2022/08/07 07:54:19;;;;;;;7.55;1.85;;;;;;;23.56;89.87;99772.47;2244355;79;21627;-60
2022/08/07 07:57:20;;;;;;;7.87;2.08;;;;;;;23.65;83.73;99771.05;2238577;79;20984;-64
2022/08/07 08:00:22;;;;;;;8.35;1.80;;;;;;;23.45;86.55;99770.89;2239983;79;21181;-66
2022/08/07 08:03:23;;;;;;;6.62;1.85;;;;;;;23.34;82.10;99759.91;2241550;79;21027;-63
2022/08/07 08:06:25;;;;;;;8.75;1.95;;;;;;;23.33;84.28;99764.42;2229676;79;21048;-66
2022/08/07 08:09:26;;;;;;;10.95;2.00;;;;;;;23.77;85.67;99762.27;2229604;79;21546;-65
2022/08/07 08:12:28;;;;;;;8.95;1.80;;;;;;;24.03;85.79;99767.69;2227580;79;21060;-65
2022/08/07 08:15:29;;;;;;;5.37;1.65;;;;;;;23.97;81.03;99762.94;2219873;79;20987;-66
2022/08/07 08:18:30;;;;;;;13.83;2.12;;;;;;;23.81;76.35;99760.13;2242293;79;20968;-68
2022/08/07 08:27:39;;;;;;;5.15;1.52;;;;;;;24.59;73.01;99769.13;2213364;79;21083;-63
2022/08/07 08:30:40;;;;;;;8.15;1.65;;;;;;;24.52;74.73;99768.45;2244044;79;21052;-66
2022/08/07 08:33:42;;;;;;;;;;;;;;;24.55;71.78;99761.41;2246253;79;21031;-65
2022/08/07 08:36:43;;;;;;;9.33;1.60;;;;;;;24.35;68.98;99762.16;2245937;79;20106;-67
2022/08/07 08:39:45;;;;;;;11.97;2.25;;;;;;;23.83;69.12;99755.44;2241239;79;21108;-65
2022/08/07 08:42:47;;;;;;;;;;;;;;;23.35;72.37;99758.92;2246312;79;21090;-63
2022/08/07 08:45:48;;;;;;;5.00;1.13;;;;;;;23.01;69.55;99762.23;2232577;79;20118;-67
2022/08/07 08:48:50;;;;;;;4.50;1.47;;;;;;;22.70;68.96;99767.05;2243972;79;20944;-65
2022/08/07 08:51:51;;;;;;;6.83;1.70;;;;;;;22.29;68.85;99775.38;2238376;79;21059;-64
2022/08/07 08:54:53;;;;;;;9.73;1.60;;;;;;;22.21;71.29;99769.44;2241551;78;21064;-62
2022/08/07 08:57:54;;;;;;;5.33;1.87;;;;;;;22.27;72.41;99769.34;2231262;79;21000;-68
2022/08/07 09:00:56;;;;;;;5.90;1.55;;;;;;;22.39;72.31;99768.69;2247086;79;21531;-69
2022/08/07 09:03:57;;;;;;;7.08;1.87;;;;;;;22.44;69.37;99766.41;2239322;79;21057;-68
2022/08/07 09:06:59;;;;;;;10.70;1.50;;;;;;;23.07;72.53;99768.30;2237552;79;21068;-66
2022/08/07 09:10:00;;;;;;;8.73;1.65;;;;;;;23.23;70.23;99769.50;2239117;79;20999;-61
2022/08/07 09:13:02;;;;;;;;;;;;;;;23.39;70.27;99772.82;2234882;79;21037;-63
2022/08/07 09:16:03;;;;;;;3.17;1.42;;;;;;;23.99;70.43;99762.30;2226038;78;20086;-67
2022/08/07 09:19:05;;;;;;;5.30;1.65;;;;;;;24.59;67.29;99763.77;2220067;79;20968;-67
2022/08/07 09:22:06;;;;;;;6.20;1.37;;;;;;;24.47;64.77;99761.88;2242689;79;21093;-66
2022/08/07 09:25:07;;;;;;;3.30;1.00;;;;;;;24.31;57.42;99750.08;2229280;79;20971;-68
2022/08/07 09:28:09;;;;;;;4.22;1.00;;;;;;;23.64;61.38;99752.47;2240301;79;21159;-67
2022/08/07 09:31:11;;;;;;;4.47;1.20;;;;;;;22.99;60.65;99754.86;2230914;79;21052;-62
2022/08/07 09:34:12;;;;;;;7.05;1.20;;;;;;;22.53;62.33;99760.19;2234689;79;21504;-68
2022/08/07 09:37:14;;;;;;;7.05;1.50;;;;;;;22.50;66.44;99753.80;2235509;79;21559;-64
2022/08/07 09:40:15;;;;;;;4.70;0.95;;;;;;;23.18;60.53;99747.22;2229709;79;21018;-65
2022/08/07 09:43:16;;;;;;;6.03;1.25;;;;;;;23.70;61.14;99740.64;2241544;79;21040;-62
2022/08/07 09:46:18;;;;;;;2.60;1.00;;;;;;;24.06;58.15;99743.73;2230446;79;21103;-62
2022/08/07 09:49:19;;;;;;;5.17;1.22;;;;;;;24.67;61.40;99735.68;2234192;79;21025;-66
2022/08/07 09:52:21;;;;;;;6.28;1.27;;;;;;;25.40;59.13;99728.28;2243258;79;21567;-68
2022/08/07 09:55:22;;;;;;;5.83;1.30;;;;;;;25.94;56.17;99716.95;2239465;79;21089;-68
2022/08/07 09:58:25;;;;;;;9.45;1.25;;;;;;;26.45;57.24;99722.55;2246571;79;21463;-67
2022/08/07 10:01:27;;;;;;;7.90;1.10;;;;;;;26.36;49.67;99722.23;2243263;79;21053;-62
2022/08/07 10:04:28;;;;;;;4.08;1.20;;;;;;;25.92;52.82;99724.35;2243143;79;21040;-65
2022/08/07 10:07:30;;;;;;;5.67;1.50;;;;;;;25.51;51.80;99720.37;2244073;79;20982;-64
2022/08/07 10:10:31;;;;;;;4.25;1.02;;;;;;;24.83;53.23;99733.03;2244241;79;21625;-62
2022/08/07 10:13:33;;;;;;;4.05;1.05;;;;;;;24.04;54.57;99723.80;2231647;79;21060;-64
2022/08/07 10:16:35;;;;;;;9.03;1.40;;;;;;;23.59;56.94;99727.98;2226744;79;21597;-68
2022/08/07 10:19:36;;;;;;;9.73;1.35;;;;;;;23.60;56.45;99725.14;2240813;79;20973;-66
2022/08/07 10:22:37;;;;;;;6.42;1.42;;;;;;;24.13;56.23;99712.62;2245546;79;21008;-65
2022/08/07 10:25:39;;;;;;;6.37;1.70;;;;;;;24.32;56.37;99690.59;2238063;79;20954;-68
2022/08/07 10:28:40;;;;;;;5.12;1.45;;;;;;;23.72;55.13;99715.52;2220943;79;21037;-63
2022/08/07 10:31:42;;;;;;;8.93;1.70;;;;;;;23.12;55.74;99701.02;2242375;79;21583;-62
2022/08/07 10:34:43;;;;;;;6.53;1.60;;;;;;;22.86;58.81;99706.22;2220581;79;21039;-69
2022/08/07 10:40:48;;;;;;;6.60;1.22;;;;;;;24.15;59.01;99690.53;2217275;79;20369;-64
2022/08/07 10:43:50;;;;;;;7.22;1.20;;;;;;;25.04;53.62;99688.78;2242605;79;20997;-66
2022/08/07 10:46:51;;;;;;;;;;;;;;;25.87;51.18;99689.08;2240790;79;21072;-61
2022/08/07 10:49:53;;;;;;;5.87;1.35;;;;;;;26.17;48.79;99690.70;2224409;79;20125;-66
2022/08/07 10:52:54;;;;;;;4.78;1.02;;;;;;;25.76;47.53;99685.44;2243955;79;21040;-67
2022/08/07 10:55:56;;;;;;;7.22;1.45;;;;;;;25.58;50.60;99686.97;2243035;79;21003;-68
2022/08/07 10:58:58;;;;;;;7.15;1.57;;;;;;;25.08;53.26;99684.77;2233100;79;21012;-69
2022/08/07 11:01:59;;;;;;;3.98;1.30;;;;;;;24.16;51.48;99680.65;2240148;79;20992;-69
2022/08/07 11:05:01;;;;;;;1.57;0.93;;;;;;;23.74;53.04;99676.05;2227570;79;20999;-69
2022/08/07 11:08:04;;;;;;;4.78;1.30;;;;;;;23.93;51.76;99670.99;2241518;79;21072;-62
2022/08/07 11:11:06;;;;;;;8.23;1.47;;;;;;;24.08;50.97;99663.19;2229749;79;21029;-66
2022/08/07 11:14:07;;;;;;;8.38;1.20;;;;;;;24.45;52.42;99669.55;2226049;79;21078;-68
2022/08/07 11:17:09;;;;;;;5.05;1.22;;;;;;;24.88;51.94;99670.34;2224093;79;21015;-68
2022/08/07 11:20:10;;;;;;;6.92;1.45;;;;;;;25.35;52.34;99670.20;2232876;79;20989;-65
2022/08/07 11:23:13;;;;;;;;;;;;;;;25.68;48.42;99650.02;2234958;79;21467;-66
2022/08/07 11:26:14;;;;;;;4.92;1.37;;;;;;;25.57;46.83;99647.69;2242758;79;20122;-61
2022/08/07 11:29:16;;;;;;;3.40;0.85;;;;;;;24.60;45.10;99659.56;2228208;79;21115;-64
2022/08/07 11:32:17;;;;;;;4.72;1.25;;;;;;;23.96;47.70;99658.10;2236215;79;21060;-69
2022/08/07 11:35:21;;;;;;;;;;;;;;;24.41;52.01;99659.29;2232572;79;20966;-69
2022/08/07 11:38:22;;;;;;;5.85;0.90;;;;;;;25.48;52.44;99644.18;2241208;79;20101;-68
2022/08/07 11:41:24;;;;;;;7.60;1.30;;;;;;;26.37;46.46;99648.11;2231711;79;21030;-67
2022/08/07 11:44:25;;;;;;;;;;;;;;;25.87;44.22;99654.16;2245677;79;21095;-63
2022/08/07 11:47:27;;;;;;;5.12;1.07;;;;;;;24.92;45.82;99659.27;2245075;79;20093;-67
2022/08/07 11:50:31;;;;;;;3.22;1.17;;;;;;;24.04;46.37;99655.47;2224633;79;20955;-67
2022/08/07 11:53:32;;;;;;;4.92;1.27;;;;;;;23.55;47.38;99655.18;2193512;79;21086;-67
2022/08/07 11:56:33;;;;;;;10.82;1.30;;;;;;;23.41;51.08;99651.23;2231412;79;21585;-65
2022/08/07 11:59:35;;;;;;;6.58;1.07;;;;;;;23.91;48.93;99650.23;2235373;79;20985;-66
2022/08/07 12:02:36;;;;;;;3.45;1.07;;;;;;;24.53;46.30;99646.76;2243964;79;20984;-65
2022/08/07 12:05:37;;;;;;;6.37;1.37;;;;;;;24.97;44.45;99653.75;2239859;79;21062;-67
2022/08/07 12:08:39;;;;;;;6.75;1.27;;;;;;;25.44;48.20;99639.33;2227332;79;21585;-66
2022/08/07 12:11:41;;;;;;;3.15;1.00;;;;;;;25.92;44.66;99632.98;2242531;79;20992;-69
2022/08/07 12:14:42;;;;;;;5.15;1.10;;;;;;;25.77;41.05;99637.39;2235833;79;21490;-68
2022/08/07 12:17:44;;;;;;;2.10;0.80;;;;;;;25.81;43.21;99629.84;2243652;79;20988;-67
2022/08/07 12:20:45;;;;;;;3.85;1.17;;;;;;;26.27;44.57;99628.67;2240649;79;21043;-69
2022/08/07 12:23:47;;;;;;;6.35;1.10;;;;;;;26.52;42.47;99617.28;2235611;79;21019;-68
2022/08/07 12:26:48;;;;;;;5.75;1.00;;;;;;;26.95;40.78;99611.42;2236365;79;20973;-69
2022/08/07 12:29:50;;;;;;;5.83;1.10;;;;;;;27.26;44.03;99609.98;2245090;79;21573;-69
2022/08/07 12:32:51;;;;;;;4.55;0.88;;;;;;;27.62;41.95;99610.65;2220688;79;20979;-69
2022/08/07 12:35:53;;;;;;;5.00;0.90;;;;;;;27.36;39.80;99617.00;2239749;79;21545;-68
2022/08/07 12:38:55;;;;;;;;;;;;;;;27.36;39.23;99609.75;2226523;79;20976;-69
2022/08/07 12:41:57;;;;;;;3.10;0.88;;;;;;;27.05;37.29;99613.88;2239253;78;20095;-70
2022/08/07 12:44:59;;;;;;;4.80;1.07;;;;;;;27.01;41.47;99605.83;2236341;79;21142;-67
2022/08/07 12:48:00;;;;;;;15.40;1.32;;;;;;;26.56;42.11;99605.13;2221266;79;21005;-70
2022/08/07 12:51:02;;;;;;;8.93;1.32;;;;;;;26.13;42.27;99604.70;2241980;79;21014;-67
2022/08/07 12:54:03;;;;;;;4.70;0.90;;;;;;;26.34;44.28;99604.09;2247370;79;21523;-70
2022/08/07 12:57:05;;;;;;;7.53;1.10;;;;;;;26.87;40.03;99593.50;2243019;79;21072;-68
2022/08/07 13:00:08;;;;;;;5.70;0.90;;;;;;;27.04;40.16;99598.73;2245144;79;21544;-64
2022/08/07 13:03:10;;;;;;;3.25;0.80;;;;;;;26.82;39.69;99597.75;2245751;79;21080;-67
2022/08/07 13:06:11;;;;;;;2.95;0.80;;;;;;;26.79;38.26;99595.77;2238635;79;21044;-66
2022/08/07 13:09:13;;;;;;;2.33;0.88;;;;;;;26.24;37.65;99596.77;2232563;79;21032;-67
2022/08/07 13:12:14;;;;;;;;;;;;;;;26.10;40.66;99599.20;2246409;79;21079;-66
2022/08/07 13:15:16;;;;;;;4.15;0.88;;;;;;;26.61;39.89;99604.61;2236580;78;20448;-67
2022/08/07 13:18:18;;;;;;;3.65;0.80;;;;;;;26.93;39.84;99590.08;2245052;79;21088;-67
2022/08/07 13:21:20;;;;;;;5.67;1.15;;;;;;;27.44;37.91;99584.58;2242102;79;21599;-65
2022/08/07 13:24:22;;;;;;;4.97;1.00;;;;;;;27.93;40.67;99582.67;2232003;79;21067;-70
2022/08/07 13:27:24;;;;;;;6.75;1.30;;;;;;;28.34;37.49;99589.39;2242211;79;21004;-69
2022/08/07 13:30:25;;;;;;;;;;;;;;;28.18;36.61;99582.37;2238113;79;21031;-66
2022/08/07 13:33:27;;;;;;;4.62;0.75;;;;;;;27.50;37.06;99591.94;2233722;79;20105;-65
2022/08/07 13:36:29;;;;;;;3.27;1.02;;;;;;;26.50;37.42;99580.81;2229031;78;21087;-68
2022/08/07 13:39:30;;;;;;;3.98;1.22;;;;;;;25.50;39.23;99590.30;2244971;79;21049;-63
2022/08/07 13:42:32;;;;;;;6.17;1.30;;;;;;;24.94;40.41;99590.17;2245494;79;21065;-67
2022/08/07 13:45:34;;;;;;;2.90;0.80;;;;;;;24.67;40.75;99578.27;2243414;79;21045;-69
2022/08/07 13:48:35;;;;;;;5.72;1.05;;;;;;;25.25;41.64;99579.06;2231252;79;21083;-65
2022/08/07 13:51:38;;;;;;;3.33;1.15;;;;;;;26.32;39.94;99573.87;2235258;79;21489;-69
2022/08/07 13:54:40;;;;;;;3.65;1.10;;;;;;;26.68;39.78;99566.59;2236751;79;21008;-62
2022/08/07 13:57:41;;;;;;;2.55;1.15;;;;;;;26.63;38.32;99571.63;2244404;79;21524;-67
2022/08/07 14:00:42;;;;;;;2.35;0.95;;;;;;;26.31;37.89;99568.16;2244076;78;21056;-66
2022/08/07 14:03:44;;;;;;;8.08;1.50;;;;;;;25.88;39.09;99568.51;2240246;78;21519;-64
2022/08/07 14:06:46;;;;;;;7.22;1.32;;;;;;;25.56;39.87;99567.63;2242756;79;21555;-63
2022/08/07 14:09:48;;;;;;;5.92;1.30;;;;;;;25.48;39.54;99568.98;2242529;79;21003;-63
2022/08/07 14:12:50;;;;;;;5.83;1.20;;;;;;;25.88;40.07;99575.23;2238572;79;21059;-60
2022/08/07 14:15:52;;;;;;;8.08;1.45;;;;;;;25.28;40.50;99566.33;2234145;79;20981;-62
2022/08/07 14:18:54;;;;;;;3.47;0.78;;;;;;;25.47;41.02;99571.33;2242393;79;20988;-60
2022/08/07 14:21:55;;;;;;;4.05;1.00;;;;;;;25.85;39.68;99558.63;2241551;79;21091;-61